Shelburn, Indiana
Current Conditions -  °F | °C
As of 6:55 PM on Monday 20 Oct 2014 (Local Time) from KRSV Reporting Station
Clear Clear  
Wind Chill: 68°   Ceiling: Unl
Heat Index: 68°   Visibility: 10mi
Dew Point: 45°   Wind: 9mph
Humidity: 43%   Direction: 310°NW
Pressure: 29.91"   Gusts: NA
Location:  39.18°N, 87.39°W
Report Text: KRSV 202255Z AUTO 31008KT 10SM CLR 20/07 A2991 RMK AO2 T02010073
Loading
Personal Weather Stations






























Interactive Weather Map New forecast layout! Learn more

10-Day Weather Forecast

Advertisements
Track Severe Weather on mobile